Terminal Aerodrome Forecast
Issued by NWS

Home | Current Version | Previous Version | Text Only | Print | Product List | Glossary On
Versions: 1 2 3 4 5 6 7 8 9 10 11 12 13 14 15 16 17
000
FTPA31 PHFO 312320
TAFHKO
TAF
PHKO 312320Z 0100/0124 17015KT P6SM SCT015 SCT050
     FM010500 15011KT P6SM VCSH SCT015 BKN035
     FM012000 18015KT P6SM VCSH SCT015 BKN035=

USA.gov is the U.S. government's official web portal to all federal, state and local government web resources and services.